Time;durP1;ratioP1;P1;durP2;ratioP2;P2;SDS_P1;SDS_P2;PMS_P1;PMS_P2;Temp;Humidity;BMP_temperature;BMP_pressure;BME280_temperature;BME280_humidity;BME280_pressure;Samples;Min_cycle;Max_cycle;Signal;HPM_P1;HPM_P2
2022/03/28 00:00:42;;;;;;;6.97;2.50;;;;;;;11.20;60.19;102305.88;4817316;29;122850;-91
2022/03/28 00:03:08;;;;;;;11.43;3.05;;;;;;;11.08;60.17;102283.28;4808393;29;119377;-91
2022/03/28 00:05:39;;;;;;;8.73;2.55;;;;;;;11.15;60.22;102287.13;4829634;28;122469;-92
2022/03/28 00:08:10;;;;;;;8.82;2.63;;;;;;;11.13;60.00;102301.28;4823355;29;122695;-92
2022/03/28 00:10:36;;;;;;;8.18;2.38;;;;;;;11.10;60.77;102285.59;4811489;29;119684;-91
2022/03/28 00:13:05;;;;;;;13.40;2.63;;;;;;;11.41;60.22;102333.03;4811471;29;121487;-91
2022/03/28 00:15:41;;;;;;;7.72;2.58;;;;;;;11.04;60.50;102266.09;4832077;29;122887;-91
2022/03/28 00:18:16;;;;;;;4.55;1.92;;;;;;;10.91;60.51;102240.41;4817700;29;121469;-92
2022/03/28 00:20:46;;;;;;;8.65;2.70;;;;;;;11.31;60.14;102295.50;4835888;28;121448;-91
2022/03/28 00:23:16;;;;;;;10.20;2.88;;;;;;;10.88;60.33;102229.44;4831648;23;119367;-92
2022/03/28 00:25:45;;;;;;;10.90;3.40;;;;;;;11.10;61.08;102251.88;4818626;29;122839;-91
2022/03/28 00:28:25;;;;;;;5.75;2.42;;;;;;;11.03;60.36;102234.31;4843665;29;119699;-91
2022/03/28 00:34:14;;;;;;;7.70;2.88;;;;;;;10.97;60.05;102216.00;4906527;23;121124;-90
2022/03/28 00:36:44;;;;;;;9.75;3.17;;;;;;;10.92;60.12;102217.25;4809533;29;121772;-91
2022/03/28 00:39:16;;;;;;;5.45;2.63;;;;;;;11.08;59.92;102239.34;4791657;29;121768;-91
2022/03/28 00:41:43;;;;;;;7.22;2.85;;;;;;;11.20;60.21;102239.97;4811815;23;121835;-91
2022/03/28 00:44:09;;;;;;;5.35;2.70;;;;;;;11.07;60.03;102226.03;5113673;23;124437;-91
2022/03/28 00:46:35;;;;;;;9.43;3.28;;;;;;;10.89;59.99;102185.13;4852263;28;120793;-91
2022/03/28 00:52:10;;;;;;;6.40;3.25;;;;;;;10.88;60.00;102191.00;5146152;23;120968;-91
2022/03/28 00:55:00;;;;;;;8.07;3.17;;;;;;;11.08;59.96;102211.88;5275791;23;121003;-91
2022/03/28 00:57:32;;;;;;;5.72;3.30;;;;;;;10.84;59.86;102174.59;5259918;23;122141;-92
2022/03/28 01:00:05;;;;;;;7.95;3.03;;;;;;;10.83;59.93;102184.03;4912292;23;1464375;-91
2022/03/28 01:02:33;;;;;;;6.50;3.30;;;;;;;11.08;60.26;102222.09;4927812;23;122382;-92
2022/03/28 01:04:59;;;;;;;4.88;2.97;;;;;;;10.82;60.23;102181.69;4846489;29;119704;-89
2022/03/28 01:07:30;;;;;;;5.57;3.20;;;;;;;10.77;60.32;102177.47;5061406;23;120870;-90
2022/03/28 01:18:36;;;;;;;;;;;;;;;;;;;;;
2022/03/28 06:41:47;;;;;;;10.02;5.50;;;;;;;11.69;58.60;101900.25;4856987;29;120073;-93
2022/03/28 06:53:36;;;;;;;9.55;5.75;;;;;;;12.32;58.38;101968.72;5415138;23;121298;-95
2022/03/28 07:22:28;;;;;;;12.60;8.20;;;;;;;12.24;58.14;101888.31;4868641;28;118395;-93
2022/03/28 07:30:41;;;;;;;13.95;8.02;;;;;;;12.19;57.81;101849.56;5448544;23;120783;-90
2022/03/28 07:51:24;;;;;;;13.75;9.23;;;;;;;12.77;57.46;101902.63;5601131;23;120608;31
2022/03/28 09:02:41;;;;;;;19.15;11.85;;;;;;;12.70;57.95;101864.28;4897465;28;119423;-91
2022/03/28 09:05:49;;;;;;;;;;;;;;;;;;;;;
2022/03/28 09:11:56;;;;;;;19.55;12.85;;;;;;;12.39;57.14;101797.91;5454737;23;120904;-92
2022/03/28 09:26:37;;;;;;;18.45;12.77;;;;;;;12.97;57.45;101838.34;5858346;23;122042;31
2022/03/28 09:47:21;;;;;;;18.40;13.60;;;;;;;12.65;56.96;101740.94;5021226;23;121136;-92
2022/03/28 09:49:57;;;;;;;21.83;14.88;;;;;;;12.62;56.86;101736.31;4820670;28;122264;-91
2022/03/28 09:52:29;;;;;;;22.70;14.10;;;;;;;12.88;57.21;101776.44;4855393;28;122080;-89
2022/03/28 09:55:06;;;;;;;21.90;14.00;;;;;;;12.76;58.02;101757.91;4857082;28;121547;-90
2022/03/28 09:57:35;;;;;;;20.17;13.30;;;;;;;12.70;57.71;101742.38;4834778;28;120194;-92
2022/03/28 10:00:14;;;;;;;20.60;12.88;;;;;;;13.15;59.04;101809.06;4818079;28;119734;-92
2022/03/28 10:03:05;;;;;;;19.25;13.00;;;;;;;12.75;58.34;101745.34;4829044;28;122132;-94
2022/03/28 10:05:49;;;;;;;22.13;13.38;;;;;;;12.82;57.49;101750.66;4827599;28;120678;-91
2022/03/28 10:11:32;;;;;;;17.83;12.52;;;;;;;12.93;56.73;101769.59;4834952;28;121787;-90
2022/03/28 10:14:11;;;;;;;17.38;12.55;;;;;;;12.78;56.99;101755.50;4834342;29;123247;-91
2022/03/28 10:19:25;;;;;;;15.90;11.60;;;;;;;12.71;57.40;101739.19;4810602;29;122349;-91
2022/03/28 10:21:55;;;;;;;17.65;12.43;;;;;;;12.91;57.27;101764.53;4827572;29;120602;-91
2022/03/28 10:24:25;;;;;;;12.13;9.77;;;;;;;12.74;57.04;101732.81;4806766;29;121813;-92
2022/03/28 10:26:57;;;;;;;10.47;8.27;;;;;;;13.03;56.73;101779.53;4793258;29;122763;-90
2022/03/28 10:29:34;;;;;;;11.57;8.30;;;;;;;13.00;56.29;101772.13;4801143;29;119725;-92
2022/03/28 10:32:06;;;;;;;12.75;8.65;;;;;;;12.84;55.93;101753.75;4785169;29;121998;-91
2022/03/28 10:34:43;;;;;;;12.95;8.82;;;;;;;13.12;56.46;101782.41;4800387;29;121594;-91
2022/03/28 10:37:23;;;;;;;;;;;;;;;13.23;56.49;101795.84;4816326;29;120247;-91
2022/03/28 10:39:49;;;;;;;11.98;9.23;;;;;;;13.23;56.67;101782.06;4804429;29;121519;-91
2022/03/28 10:42:24;;;;;;;9.98;7.15;;;;;;;13.34;56.13;101782.53;4816298;29;119932;-91
2022/03/28 10:45:01;;;;;;;11.23;7.35;;;;;;;13.40;55.89;101794.53;4800794;29;119539;-92
2022/03/28 10:47:59;;;;;;;9.82;7.18;;;;;;;13.07;56.13;101727.09;4814736;29;124014;-91
2022/03/28 10:50:38;;;;;;;11.05;7.97;;;;;;;13.41;55.41;101776.78;4745137;29;120095;-89
2022/03/28 10:53:10;;;;;;;11.18;7.63;;;;;;;13.25;56.26;101749.38;4800818;29;119499;-93
2022/03/28 10:55:57;;;;;;;11.93;7.35;;;;;;;13.43;55.46;101760.56;4811266;29;122447;-91
2022/03/28 10:58:29;;;;;;;12.45;8.00;;;;;;;13.49;55.93;101761.56;4786577;29;119586;-92
2022/03/28 11:01:13;;;;;;;11.13;9.25;;;;;;;13.54;55.24;101767.72;4815306;29;121457;-90
2022/03/28 11:04:00;;;;;;;15.10;8.98;;;;;;;13.50;55.97;101759.56;4788695;29;122840;-92
2022/03/28 11:07:03;;;;;;;12.50;8.90;;;;;;;13.43;56.05;101749.53;4790610;29;122550;-92
2022/03/28 11:09:35;;;;;;;10.70;8.13;;;;;;;13.54;58.43;101754.72;4799669;29;123860;-93
2022/03/28 11:12:04;;;;;;;13.05;7.50;;;;;;;13.69;57.25;101749.47;4782101;29;120664;-94
2022/03/28 11:14:37;;;;;;;8.95;6.75;;;;;;;13.81;56.81;101734.88;4781371;29;121997;-93
2022/03/28 11:17:18;;;;;;;9.37;6.80;;;;;;;13.88;55.24;101731.09;4797930;29;123707;-92
2022/03/28 11:19:57;;;;;;;11.25;6.82;;;;;;;13.90;55.47;101717.63;4785096;29;119865;-93
2022/03/28 11:22:55;;;;;;;13.45;7.50;;;;;;;14.02;54.33;101720.34;4784866;29;121056;-92
2022/03/28 11:25:26;;;;;;;13.88;7.03;;;;;;;14.09;53.54;101716.56;4799060;29;123098;-93
2022/03/28 11:28:08;;;;;;;10.80;7.05;;;;;;;14.11;54.59;101717.63;4789053;29;120327;-92
2022/03/28 11:30:39;;;;;;;10.57;6.97;;;;;;;14.03;54.62;101691.53;4799400;29;122233;-92
2022/03/28 11:33:10;;;;;;;10.30;7.80;;;;;;;14.22;53.63;101713.75;4814798;29;119770;-92
2022/03/28 11:35:49;;;;;;;10.80;7.75;;;;;;;14.19;52.82;101709.88;4799937;29;122923;-92
2022/03/28 11:38:19;;;;;;;10.55;8.30;;;;;;;14.21;54.10;101701.16;4799037;29;123349;-93
2022/03/28 11:40:44;;;;;;;9.07;6.60;;;;;;;14.08;54.97;101671.66;4798568;29;119449;-93
2022/03/28 11:43:10;;;;;;;9.25;7.10;;;;;;;13.99;54.64;101640.47;4781177;29;123824;-90
2022/03/28 11:45:45;;;;;;;12.18;7.70;;;;;;;14.05;52.61;101639.44;4783704;29;121812;-91
2022/03/28 11:48:22;;;;;;;11.57;7.45;;;;;;;14.30;53.08;101676.38;4800451;29;119522;-91
2022/03/28 11:50:48;;;;;;;10.80;7.28;;;;;;;14.44;52.66;101675.88;4803541;29;122246;-92
2022/03/28 11:53:18;;;;;;;10.15;6.90;;;;;;;14.12;51.89;101619.84;4784483;29;119876;-92
2022/03/28 11:55:54;;;;;;;9.07;6.63;;;;;;;14.40;52.67;101666.91;4799648;29;122381;-92
2022/03/28 11:58:31;;;;;;;10.70;7.13;;;;;;;14.55;52.56;101669.94;4783027;29;123378;-94
2022/03/28 12:01:12;;;;;;;11.98;7.60;;;;;;;14.41;51.90;101638.06;4799010;29;120749;-92
2022/03/28 12:03:49;;;;;;;8.52;6.35;;;;;;;14.78;53.11;101658.34;4799987;29;122253;-92
2022/03/28 12:06:35;;;;;;;11.70;7.00;;;;;;;14.85;53.30;101658.06;4796940;29;123502;-93
2022/03/28 12:09:04;;;;;;;11.40;7.90;;;;;;;14.94;53.32;101657.34;4784444;29;119588;-94
2022/03/28 12:11:31;;;;;;;10.82;7.43;;;;;;;14.94;53.88;101649.03;4803813;29;122384;-93
2022/03/28 12:14:00;;;;;;;10.15;7.35;;;;;;;14.99;54.08;101642.91;4789498;29;121034;-92
2022/03/28 12:16:25;;;;;;;11.95;7.43;;;;;;;15.00;53.99;101645.22;4802547;29;122100;-94
2022/03/28 12:19:01;;;;;;;13.32;9.98;;;;;;;14.89;52.69;101608.19;4800769;29;122989;-93
2022/03/28 12:21:28;;;;;;;12.45;9.00;;;;;;;14.94;51.06;101622.19;4802163;29;119792;-95
2022/03/28 12:23:53;;;;;;;14.40;10.15;;;;;;;14.84;51.24;101614.31;4786921;29;122081;-92
2022/03/28 12:26:19;;;;;;;16.83;9.77;;;;;;;14.73;51.45;101618.31;4776010;29;123130;-94
2022/03/28 12:28:47;;;;;;;13.32;9.82;;;;;;;14.68;51.92;101616.13;4787434;29;121123;-93
2022/03/28 12:31:13;;;;;;;14.85;10.02;;;;;;;14.65;52.69;101608.75;4800869;29;121870;-92
2022/03/28 12:33:44;;;;;;;13.38;8.90;;;;;;;14.74;53.31;101617.06;4789217;29;122625;-94
2022/03/28 12:36:24;;;;;;;12.35;8.60;;;;;;;14.52;53.90;101566.69;4787538;29;122306;-95
2022/03/28 12:39:01;;;;;;;15.23;10.32;;;;;;;14.85;52.47;101622.16;4787660;29;122755;-93
2022/03/28 12:41:30;;;;;;;15.68;9.40;;;;;;;14.73;53.86;101592.69;4785838;29;120887;-93
2022/03/28 12:44:00;;;;;;;14.75;9.00;;;;;;;14.76;54.74;101577.19;4802853;29;120882;-95
2022/03/28 12:46:36;;;;;;;16.20;10.38;;;;;;;14.84;53.22;101568.13;4816455;29;120447;-93
2022/03/28 12:49:08;;;;;;;15.52;10.70;;;;;;;15.08;52.05;101601.47;4786497;29;121286;-93
2022/03/28 12:51:34;;;;;;;16.00;10.50;;;;;;;15.05;51.73;101586.56;4785197;29;121066;-94
2022/03/28 12:54:06;;;;;;;13.43;9.82;;;;;;;15.15;53.55;101612.25;4800817;29;122725;-93
2022/03/28 12:56:46;;;;;;;17.88;9.95;;;;;;;15.05;51.66;101591.34;4791506;29;120026;-93
2022/03/28 12:59:19;;;;;;;15.38;9.18;;;;;;;14.98;52.87;101583.34;4792992;29;122743;-92
2022/03/28 13:01:49;;;;;;;14.55;10.40;;;;;;;15.15;52.88;101595.66;4787047;29;120481;-93
2022/03/28 13:04:23;;;;;;;13.70;8.55;;;;;;;15.15;51.13;101573.56;4786419;29;120812;-93
2022/03/28 13:06:58;;;;;;;15.20;9.63;;;;;;;14.95;50.61;101538.06;4801584;29;123183;-95
2022/03/28 13:09:31;;;;;;;16.30;9.00;;;;;;;14.84;50.20;101517.66;4788077;29;119525;-94
2022/03/28 13:12:07;;;;;;;10.60;8.35;;;;;;;15.06;51.49;101559.72;4789638;29;122136;-92
2022/03/28 13:14:34;;;;;;;;;;;;;;;15.23;51.52;101568.47;4801080;29;123595;-93
2022/03/28 13:17:14;;;;;;;14.57;7.85;;;;;;;15.12;51.68;101530.22;4801509;29;119930;-93
2022/03/28 13:19:41;;;;;;;12.45;8.30;;;;;;;15.32;50.93;101558.16;4789570;29;119610;-93
2022/03/28 13:22:09;;;;;;;14.80;7.75;;;;;;;15.40;50.13;101564.16;4799876;29;119779;-94
2022/03/28 13:24:38;;;;;;;11.23;7.30;;;;;;;15.22;49.01;101553.13;4801313;29;122615;-95
2022/03/28 13:29:50;;;;;;;11.90;8.20;;;;;;;14.89;49.00;101541.88;4786030;29;119981;-94
2022/03/28 13:32:16;;;;;;;11.80;7.60;;;;;;;14.71;49.04;101542.66;4801766;29;122101;-93
2022/03/28 13:34:45;;;;;;;10.40;7.22;;;;;;;14.71;49.96;101539.91;4799579;29;121989;-91
2022/03/28 13:37:20;;;;;;;12.40;7.20;;;;;;;14.60;51.02;101518.22;4801897;29;119929;-92
2022/03/28 13:39:53;;;;;;;12.27;8.80;;;;;;;14.62;49.97;101521.31;4802212;29;122556;-95
2022/03/28 13:42:19;;;;;;;17.63;10.10;;;;;;;14.42;50.00;101510.66;4789920;29;122910;-92
2022/03/28 13:44:47;;;;;;;15.93;9.48;;;;;;;14.59;50.89;101536.03;4801262;29;121828;-93
2022/03/28 13:47:15;;;;;;;15.25;9.38;;;;;;;14.24;50.46;101463.72;4814541;29;120271;-93
2022/03/28 13:49:41;;;;;;;13.68;8.13;;;;;;;14.40;52.13;101476.44;4816025;29;119826;-93
2022/03/28 13:52:16;;;;;;;17.13;10.60;;;;;;;14.72;50.39;101506.31;4799646;29;121972;-93
2022/03/28 13:54:45;;;;;;;14.93;9.68;;;;;;;14.33;50.44;101455.44;4799539;29;123113;-92
2022/03/28 13:57:10;;;;;;;17.77;9.13;;;;;;;14.61;49.93;101491.38;4786580;29;119856;-93
2022/03/28 13:59:36;;;;;;;16.02;9.75;;;;;;;14.60;50.41;101468.53;4801454;29;119967;-91
2022/03/28 14:02:05;;;;;;;16.50;9.30;;;;;;;14.73;49.76;101476.69;4799215;29;120105;-93
2022/03/28 14:04:38;;;;;;;19.77;9.25;;;;;;;14.92;49.97;101510.63;4820241;29;119774;-94
2022/03/28 14:07:06;;;;;;;18.48;9.50;;;;;;;14.94;49.28;101508.16;4798899;29;122972;-92
2022/03/28 14:09:34;;;;;;;18.67;9.45;;;;;;;14.82;50.05;101481.44;4793714;29;119777;-92
2022/03/28 14:12:00;;;;;;;20.00;10.60;;;;;;;14.90;50.27;101491.72;4799069;29;121487;-93
2022/03/28 14:14:26;;;;;;;19.75;10.57;;;;;;;14.93;49.89;101495.56;4799840;29;123122;-94
2022/03/28 14:16:57;;;;;;;21.33;11.30;;;;;;;14.90;49.90;101490.94;4784849;29;119932;-91
2022/03/28 14:19:23;;;;;;;21.27;11.15;;;;;;;14.81;49.35;101480.66;4801260;29;122354;-93
2022/03/28 14:21:52;;;;;;;20.15;11.02;;;;;;;14.57;49.87;101463.16;4799968;29;123102;-91
2022/03/28 14:24:18;;;;;;;17.98;10.38;;;;;;;14.54;50.84;101453.81;4801236;29;120144;-91
2022/03/28 14:26:44;;;;;;;18.83;10.80;;;;;;;14.74;51.36;101484.50;4816692;29;120418;-91
2022/03/28 14:29:12;;;;;;;14.65;9.10;;;;;;;14.73;52.77;101477.44;4817166;29;119954;-91
2022/03/28 14:31:38;;;;;;;16.70;10.00;;;;;;;14.75;53.20;101468.72;4785728;29;122363;-94
2022/03/28 14:34:03;;;;;;;19.45;10.85;;;;;;;14.56;50.77;101439.53;4783277;29;123463;-93
2022/03/28 14:36:30;;;;;;;22.40;11.35;;;;;;;14.78;50.00;101478.06;4801177;29;120269;-93
2022/03/28 14:38:55;;;;;;;17.27;10.20;;;;;;;14.69;51.97;101465.03;4802653;29;121549;-91
2022/03/28 14:41:21;;;;;;;16.40;10.23;;;;;;;14.66;51.68;101455.66;4802303;29;122156;-92
2022/03/28 14:43:48;;;;;;;18.40;10.30;;;;;;;14.46;50.96;101436.03;4801250;29;120375;-91
2022/03/28 14:49:18;;;;;;;16.00;10.57;;;;;;;14.39;50.66;101455.59;4785100;29;119466;-93
2022/03/28 14:51:45;;;;;;;22.52;11.20;;;;;;;14.26;50.05;101454.97;4784200;29;122659;-92
2022/03/28 14:54:11;;;;;;;17.90;11.43;;;;;;;14.12;49.58;101457.06;4783954;29;124020;-93
2022/03/28 14:56:37;;;;;;;16.75;10.55;;;;;;;14.02;50.36;101457.50;4784844;29;120618;-91
2022/03/28 14:59:02;;;;;;;17.67;10.93;;;;;;;13.85;50.00;101434.94;4785065;29;121728;-93
2022/03/28 15:01:28;;;;;;;18.38;10.70;;;;;;;13.79;51.40;101445.03;4798525;29;123690;-93
2022/03/28 15:03:54;;;;;;;14.43;9.98;;;;;;;13.77;52.21;101433.69;4784199;29;119949;-92
2022/03/28 15:06:21;;;;;;;18.33;11.15;;;;;;;13.80;50.73;101439.06;4799403;29;122194;-91
2022/03/28 15:08:46;;;;;;;17.33;11.60;;;;;;;13.71;50.48;101438.22;4803162;29;120389;-92
2022/03/28 15:11:15;;;;;;;19.95;11.68;;;;;;;13.61;50.70;101437.44;4800175;29;122036;-91
2022/03/28 15:13:42;;;;;;;16.02;10.52;;;;;;;13.57;50.49;101422.25;4799405;29;121778;-91
2022/03/28 15:16:13;;;;;;;19.48;10.93;;;;;;;13.37;51.02;101406.09;4798854;29;121456;-91
2022/03/28 15:18:43;;;;;;;21.92;11.23;;;;;;;13.77;50.73;101455.75;4798791;29;122176;-92
2022/03/28 15:21:11;;;;;;;18.25;11.50;;;;;;;13.37;50.62;101397.81;4794348;29;123156;-90
2022/03/28 15:23:41;;;;;;;19.48;11.95;;;;;;;13.79;50.71;101450.53;4800050;29;121491;-90
2022/03/28 15:26:11;;;;;;;22.38;12.23;;;;;;;13.58;50.26;101413.53;4800394;29;119936;-92
2022/03/28 15:28:40;;;;;;;17.65;11.15;;;;;;;13.42;52.48;101388.97;4798464;29;122934;-91
2022/03/28 15:31:25;;;;;;;19.58;12.90;;;;;;;13.80;51.47;101446.56;4817923;29;119722;-92
2022/03/28 15:33:53;;;;;;;20.75;13.23;;;;;;;13.75;50.93;101430.63;4783665;29;122438;-92
2022/03/28 15:36:19;;;;;;;21.77;13.85;;;;;;;13.76;50.77;101451.44;4795373;29;119980;-91
2022/03/28 15:38:45;;;;;;;21.25;13.40;;;;;;;13.66;50.49;101422.28;4810931;29;122406;-94
2022/03/28 15:41:11;;;;;;;19.38;13.02;;;;;;;13.69;50.59;101435.94;4783400;29;124024;-93
2022/03/28 15:43:36;;;;;;;19.48;13.05;;;;;;;13.67;50.81;101432.88;4782593;29;122030;-93
2022/03/28 15:46:02;;;;;;;22.42;13.88;;;;;;;13.68;50.16;101430.88;4797324;29;122830;-90
2022/03/28 15:48:31;;;;;;;24.42;14.60;;;;;;;13.56;50.47;101409.69;4813458;29;120121;-92
2022/03/28 15:50:57;;;;;;;23.77;13.27;;;;;;;13.59;50.92;101425.34;4799328;29;119863;-93
2022/03/28 15:53:22;;;;;;;24.98;16.45;;;;;;;13.63;50.89;101446.03;4801438;29;122203;-91
2022/03/28 15:55:49;;;;;;;24.83;14.85;;;;;;;13.34;51.53;101393.97;4793275;29;119816;-92
2022/03/28 15:58:18;;;;;;;25.45;14.32;;;;;;;13.26;51.99;101409.25;4813918;29;121890;-91
2022/03/28 16:00:48;;;;;;;26.73;16.83;;;;;;;13.07;51.41;101404.81;4798046;29;123177;-91
2022/03/28 16:03:21;;;;;;;21.60;14.73;;;;;;;13.18;52.00;101432.75;4813484;29;120971;-92
2022/03/28 16:05:47;;;;;;;24.87;15.93;;;;;;;13.14;52.10;101435.63;4814230;29;122863;-91
2022/03/28 16:08:13;;;;;;;28.45;18.38;;;;;;;13.17;52.88;101450.47;4813106;29;119990;-90
2022/03/28 16:10:39;;;;;;;31.67;19.33;;;;;;;13.12;53.30;101453.81;4814205;29;120001;-90
2022/03/28 16:13:08;;;;;;;29.77;19.05;;;;;;;13.02;53.21;101450.25;4798294;29;119787;-90
2022/03/28 16:15:36;;;;;;;26.55;18.45;;;;;;;13.02;54.79;101443.97;4811944;29;120120;-92
2022/03/28 16:18:01;;;;;;;28.40;19.75;;;;;;;12.84;54.16;101415.09;4782850;29;121185;-94
2022/03/28 16:20:27;;;;;;;29.88;20.92;;;;;;;12.79;53.74;101414.88;4816882;29;120106;-93
2022/03/28 16:22:53;;;;;;;31.05;20.20;;;;;;;12.89;54.33;101439.28;4799710;29;120019;-91
2022/03/28 16:25:19;;;;;;;29.65;20.45;;;;;;;12.82;54.69;101434.03;4813640;29;119860;-91
2022/03/28 16:27:44;;;;;;;31.95;22.98;;;;;;;12.55;54.78;101389.78;4797218;29;122965;-91
2022/03/28 16:30:15;;;;;;;38.45;26.05;;;;;;;12.71;54.70;101428.13;4797915;29;119799;-91
2022/03/28 16:32:44;;;;;;;38.60;23.92;;;;;;;12.62;55.32;101417.03;4798683;29;121081;-91
2022/03/28 16:35:09;;;;;;;35.20;23.98;;;;;;;12.42;55.52;101391.81;4785894;29;123197;-93
2022/03/28 16:37:35;;;;;;;38.58;23.90;;;;;;;12.29;55.87;101369.81;4798571;29;122082;-92
2022/03/28 16:40:01;;;;;;;33.17;22.52;;;;;;;12.55;55.91;101401.56;4798407;29;120083;-91
2022/03/28 16:42:30;;;;;;;36.53;24.20;;;;;;;12.19;55.94;101346.97;4805734;29;119733;-90
2022/03/28 16:44:58;;;;;;;35.40;22.85;;;;;;;12.25;56.55;101352.66;4796884;29;124218;-93
2022/03/28 16:47:24;;;;;;;38.70;23.33;;;;;;;12.28;56.44;101360.03;4794206;29;122777;-90
2022/03/28 16:49:52;;;;;;;35.53;23.08;;;;;;;12.47;56.93;101397.50;4797880;29;119950;-92
2022/03/28 16:52:18;;;;;;;37.10;24.20;;;;;;;12.49;57.21;101399.78;4798853;29;122257;-90
2022/03/28 16:54:46;;;;;;;37.78;24.73;;;;;;;12.10;57.21;101344.16;4797349;29;123174;-92
2022/03/28 16:57:19;;;;;;;39.63;24.77;;;;;;;12.24;56.83;101364.88;4787823;29;121387;-91
2022/03/28 16:59:52;;;;;;;40.60;24.88;;;;;;;12.08;57.30;101341.09;4785613;29;123665;-92
2022/03/28 17:02:18;;;;;;;40.95;24.80;;;;;;;12.28;57.11;101371.03;4786041;29;119808;-93
2022/03/28 17:04:44;;;;;;;36.20;24.85;;;;;;;12.39;57.55;101387.97;4784940;29;121871;-91
2022/03/28 17:07:10;;;;;;;38.28;26.15;;;;;;;12.07;56.73;101350.53;4778391;29;123236;-91
2022/03/28 17:09:41;;;;;;;37.45;25.55;;;;;;;12.03;57.75;101336.13;4792149;29;120023;-90
2022/03/28 17:12:07;;;;;;;38.20;25.63;;;;;;;12.07;57.08;101353.28;4810279;29;122479;-89
2022/03/28 17:14:38;;;;;;;43.80;26.50;;;;;;;12.12;57.46;101358.22;4794541;29;123016;-91
2022/03/28 17:17:03;;;;;;;43.63;26.02;;;;;;;12.20;57.06;101373.25;4794389;29;119764;-89
2022/03/28 17:19:30;;;;;;;39.40;24.70;;;;;;;12.19;57.61;101368.97;4795507;29;120990;-91
2022/03/28 17:21:59;;;;;;;45.85;26.02;;;;;;;11.94;57.69;101330.56;4810359;29;119760;-92
2022/03/28 17:24:26;;;;;;;38.83;25.77;;;;;;;12.06;57.89;101348.97;4793840;29;122103;-90
2022/03/28 17:26:52;;;;;;;45.70;26.73;;;;;;;12.18;57.47;101356.44;4795051;29;123327;-90
2022/03/28 17:29:17;;;;;;;48.17;27.90;;;;;;;12.03;57.79;101338.88;4795250;29;119853;-90
2022/03/28 17:31:43;;;;;;;41.58;27.45;;;;;;;12.19;58.14;101371.72;4794436;29;122498;-91
2022/03/28 17:34:16;;;;;;;41.50;25.95;;;;;;;12.01;58.41;101335.81;4794325;29;123083;-90
2022/03/28 17:36:43;;;;;;;48.53;27.88;;;;;;;12.20;57.84;101361.50;4795318;29;121919;-90
2022/03/28 17:39:09;;;;;;;43.42;27.17;;;;;;;11.82;58.51;101301.09;4795308;29;122466;-91
2022/03/28 17:41:41;;;;;;;45.05;27.45;;;;;;;12.06;57.98;101335.22;4796767;29;122805;-90
2022/03/28 17:44:07;;;;;;;40.28;26.33;;;;;;;12.25;58.49;101361.69;4811194;29;122067;-90
2022/03/28 17:46:32;;;;;;;41.10;28.50;;;;;;;12.21;57.95;101354.78;4792493;29;122324;-90
2022/03/28 17:48:58;;;;;;;45.72;28.02;;;;;;;12.19;57.70;101355.22;4794689;29;120330;-90
2022/03/28 17:51:24;;;;;;;46.10;27.48;;;;;;;11.97;57.16;101324.16;4795690;29;122100;-90
2022/03/28 17:53:50;;;;;;;43.63;27.85;;;;;;;12.13;57.71;101350.75;4793594;29;123392;-90
2022/03/28 17:56:16;;;;;;;42.67;27.27;;;;;;;12.22;57.54;101365.34;4794353;29;120339;-91
2022/03/28 17:58:42;;;;;;;41.40;27.13;;;;;;;12.18;57.92;101352.94;4795289;29;122140;-90
2022/03/28 18:01:10;;;;;;;43.42;28.13;;;;;;;12.21;57.60;101358.28;4810136;29;120141;-92
2022/03/28 18:03:39;;;;;;;49.55;27.83;;;;;;;12.11;57.55;101339.41;4799168;29;119658;-92
2022/03/28 18:06:06;;;;;;;44.05;27.67;;;;;;;11.95;57.69;101323.84;4793864;29;122671;-91
2022/03/28 18:08:33;;;;;;;43.67;27.20;;;;;;;12.14;57.76;101357.78;4794557;29;119912;-91
2022/03/28 18:10:59;;;;;;;45.83;28.05;;;;;;;12.14;57.63;101360.53;4812480;29;122672;-92
2022/03/28 18:13:25;;;;;;;48.10;27.70;;;;;;;12.01;57.88;101333.06;4790386;29;123647;-92
2022/03/28 18:15:51;;;;;;;48.33;29.65;;;;;;;12.12;57.48;101358.22;4781040;29;119656;-92
2022/03/28 18:18:17;;;;;;;47.00;29.75;;;;;;;12.15;57.69;101362.06;4796314;29;122311;-93
2022/03/28 18:20:43;;;;;;;50.53;31.08;;;;;;;12.19;57.58;101365.47;4778967;29;122621;-91
2022/03/28 18:23:10;;;;;;;49.03;31.15;;;;;;;12.15;57.27;101362.84;4796263;29;120873;-92
2022/03/28 18:25:36;;;;;;;51.38;29.77;;;;;;;12.15;57.21;101364.81;4799059;29;120965;-92
2022/03/28 18:28:05;;;;;;;45.05;29.15;;;;;;;12.12;56.84;101352.72;4795590;29;119826;-91
2022/03/28 18:30:31;;;;;;;52.60;31.98;;;;;;;11.97;56.74;101351.66;4794044;29;122974;-91
2022/03/28 18:32:56;;;;;;;54.88;34.13;;;;;;;12.02;56.87;101359.34;4793772;29;122055;-91
2022/03/28 18:35:25;;;;;;;53.33;31.35;;;;;;;11.69;56.90;101321.13;4791805;29;121153;-91
2022/03/28 18:37:55;;;;;;;50.25;29.60;;;;;;;11.61;57.13;101297.06;4778671;29;122410;-91
2022/03/28 18:40:28;;;;;;;50.72;30.58;;;;;;;11.75;57.16;101318.56;4796188;29;122516;-92
2022/03/28 18:42:56;;;;;;;45.67;29.33;;;;;;;11.76;57.16;101324.84;4796239;29;119780;-92
2022/03/28 18:45:52;;;;;;;;;;;;;;;;;;;;;
2022/03/28 18:48:38;;;;;;;45.60;26.85;;;;;;;11.76;57.48;101311.09;4815258;29;120688;-92
2022/03/28 18:51:04;;;;;;;43.17;27.27;;;;;;;11.87;57.30;101341.78;4796424;29;121588;-94
2022/03/28 18:53:41;;;;;;;41.65;26.17;;;;;;;11.77;57.67;101327.13;4781579;29;122312;-90
2022/03/28 18:56:08;;;;;;;45.03;27.02;;;;;;;11.78;57.41;101322.41;4811333;29;120270;-92
2022/03/28 18:58:37;;;;;;;46.22;28.80;;;;;;;11.59;57.39;101294.75;4794794;29;121035;-91
2022/03/28 19:01:06;;;;;;;43.80;27.05;;;;;;;11.86;57.17;101319.03;4795567;29;123440;-92
2022/03/28 19:03:34;;;;;;;41.67;26.17;;;;;;;11.65;57.80;101292.97;4794802;29;120933;-92
2022/03/28 19:06:13;;;;;;;42.92;26.23;;;;;;;11.74;57.24;101306.03;4796550;29;121259;-91
2022/03/28 19:08:44;;;;;;;42.35;26.35;;;;;;;11.55;57.54;101277.59;4800248;29;123358;-92
2022/03/28 19:11:16;;;;;;;44.55;26.75;;;;;;;11.95;57.32;101357.59;4796524;29;120688;-90
2022/03/28 19:13:45;;;;;;;46.28;28.27;;;;;;;11.50;57.35;101289.16;4800460;29;124562;-91
2022/03/28 19:16:11;;;;;;;41.80;27.25;;;;;;;11.58;57.23;101300.66;4766439;29;119625;-91
2022/03/28 19:18:54;;;;;;;46.78;29.00;;;;;;;11.89;57.47;101356.63;4795748;29;121676;-91
2022/03/28 19:21:22;;;;;;;49.03;28.52;;;;;;;11.89;58.03;101339.38;4795421;29;125027;-93
2022/03/28 19:23:50;;;;;;;48.15;29.25;;;;;;;11.91;57.61;101331.44;4796536;29;119940;-92
2022/03/28 19:26:18;;;;;;;48.78;29.70;;;;;;;11.77;57.83;101301.63;4780935;29;122399;-93
2022/03/28 19:28:47;;;;;;;47.38;29.17;;;;;;;11.82;57.64;101296.38;4795061;29;122798;-92
2022/03/28 19:31:16;;;;;;;45.85;28.55;;;;;;;11.59;57.52;101253.53;4799585;29;120952;-91
2022/03/28 19:33:44;;;;;;;47.10;29.20;;;;;;;11.67;57.84;101263.09;4779931;29;122757;-92
2022/03/28 19:36:12;;;;;;;47.92;29.52;;;;;;;11.76;57.36;101259.63;4795524;29;121892;-92
2022/03/28 19:38:38;;;;;;;49.38;30.08;;;;;;;11.68;57.73;101242.63;4811465;29;120993;-93
2022/03/28 19:41:04;;;;;;;50.50;30.08;;;;;;;11.73;57.14;101240.53;4795502;29;122810;-92
2022/03/28 19:43:35;;;;;;;45.05;27.58;;;;;;;11.97;60.41;101272.69;4796406;29;119484;-92
2022/03/28 19:46:01;;;;;;;48.50;30.23;;;;;;;11.97;58.91;101263.66;4794059;29;121885;-92
2022/03/28 19:48:27;;;;;;;52.95;30.15;;;;;;;12.16;57.77;101294.84;4795082;29;121939;-92
2022/03/28 19:50:55;;;;;;;49.53;29.75;;;;;;;11.70;57.11;101233.94;4811626;29;119482;-92
2022/03/28 19:53:24;;;;;;;49.03;28.83;;;;;;;11.89;56.92;101268.66;4784594;29;121052;-93